Time;durP1;ratioP1;P1;durP2;ratioP2;P2;SDS_P1;SDS_P2;PMS_P1;PMS_P2;Temp;Humidity;BMP_temperature;BMP_pressure;BME280_temperature;BME280_humidity;BME280_pressure;Samples;Min_cycle;Max_cycle;Signal;HPM_P1;HPM_P2
2021/07/30 00:01:21;;;;;;;6.57;6.07;;;15.40;99.90;;;16.17;84.68;97653.66;5199576;28;20213;-57
2021/07/30 00:03:54;;;;;;;7.25;6.65;;;15.30;99.90;;;16.16;84.45;97657.03;5203976;28;20213;-57
2021/07/30 00:06:31;;;;;;;8.18;6.80;;;15.30;99.90;;;16.14;84.90;97657.84;5199124;28;20272;-58
2021/07/30 00:09:05;;;;;;;6.55;6.05;;;15.30;99.90;;;16.13;84.61;97659.53;5204608;28;20198;-57
2021/07/30 00:11:39;;;;;;;6.80;6.03;;;15.30;99.90;;;16.08;83.63;97663.69;5204648;28;20614;-57
2021/07/30 00:14:13;;;;;;;7.13;6.43;;;15.20;99.90;;;16.05;84.37;97658.41;5205724;28;20228;-57
2021/07/30 00:16:46;;;;;;;6.72;6.20;;;15.20;99.90;;;16.02;84.69;97655.72;5205110;28;20614;-58
2021/07/30 00:19:19;;;;;;;6.22;5.72;;;15.20;99.90;;;15.98;84.53;97661.63;5203395;28;20194;-53
2021/07/30 00:21:52;;;;;;;6.65;5.97;;;15.10;99.90;;;15.94;83.65;97659.78;5203911;28;20202;-56
2021/07/30 00:24:26;;;;;;;6.30;5.72;;;15.10;99.90;;;15.83;84.27;97663.69;5204942;28;20190;-56
2021/07/30 00:26:59;;;;;;;6.18;5.50;;;15.00;99.90;;;15.79;83.66;97669.56;5203537;28;20197;-57
2021/07/30 00:29:33;;;;;;;6.07;5.55;;;14.90;99.90;;;15.84;83.13;97668.91;5204856;28;20214;-57
2021/07/30 00:32:08;;;;;;;6.35;5.82;;;14.90;99.90;;;15.81;83.80;97662.78;5204970;28;20223;-56
2021/07/30 00:34:41;;;;;;;6.82;6.22;;;14.90;99.90;;;15.83;83.89;97666.28;5204422;28;20233;-59
2021/07/30 00:37:14;;;;;;;6.45;5.95;;;15.00;99.90;;;15.85;83.67;97664.59;5203599;28;20210;-56
2021/07/30 00:39:47;;;;;;;8.95;6.25;;;14.90;99.90;;;15.88;84.64;97660.47;5205085;28;20607;-55
2021/07/30 00:42:20;;;;;;;7.22;6.47;;;15.00;99.90;;;15.94;85.01;97659.78;5204075;28;20739;-57
2021/07/30 00:44:54;;;;;;;7.47;6.75;;;15.10;99.90;;;15.97;84.86;97654.72;5205426;28;20292;-54
2021/07/30 00:47:29;;;;;;;7.22;6.60;;;15.10;99.90;;;15.99;84.15;97663.34;5204364;28;20594;-57
2021/07/30 00:50:02;;;;;;;6.63;6.13;;;15.10;99.90;;;15.94;83.87;97657.19;5202603;28;20212;-56
2021/07/30 00:52:35;;;;;;;7.15;6.50;;;15.00;99.90;;;15.89;84.52;97646.72;5200840;28;20582;-58
2021/07/30 00:55:10;;;;;;;6.20;5.70;;;15.00;99.90;;;15.94;85.12;97655.50;5184835;28;20206;-59
2021/07/30 00:57:43;;;;;;;6.43;5.93;;;15.10;99.90;;;15.95;84.26;97656.38;5198836;28;20201;-57
2021/07/30 01:00:19;;;;;;;6.88;6.28;;;15.10;99.90;;;15.99;83.74;97653.03;5203785;28;20202;-56
2021/07/30 01:02:53;;;;;;;6.35;5.68;;;15.00;99.90;;;15.96;84.01;97652.94;5203603;28;20220;-56
2021/07/30 01:05:27;;;;;;;6.55;5.95;;;15.00;99.90;;;15.89;84.25;97643.28;5201517;28;20210;-57
2021/07/30 01:08:02;;;;;;;6.68;6.18;;;15.00;99.90;;;15.90;83.30;97642.44;5202596;28;20324;-58
2021/07/30 01:10:35;;;;;;;6.97;6.20;;;14.90;99.90;;;15.80;84.18;97646.44;5203535;28;20203;-58
2021/07/30 01:13:08;;;;;;;6.53;5.93;;;14.90;99.90;;;15.79;84.02;97654.09;5204570;28;20236;-56
2021/07/30 01:15:42;;;;;;;6.57;5.97;;;15.00;99.90;;;15.82;84.15;97646.47;5205298;28;20202;-55
2021/07/30 01:18:16;;;;;;;6.15;5.65;;;15.00;99.90;;;15.84;85.65;97655.13;5202382;28;20198;-57
2021/07/30 01:21:05;;;;;;;6.32;5.82;;;15.10;99.90;;;15.83;85.32;97653.41;5203007;28;20293;-58
2021/07/30 01:23:39;;;;;;;6.03;5.53;;;15.10;99.90;;;15.85;84.91;97654.31;5204108;28;20225;-59
2021/07/30 01:26:12;;;;;;;7.15;6.55;;;15.00;99.90;;;15.87;84.59;97655.22;5204306;28;20212;-58
2021/07/30 01:28:45;;;;;;;6.90;6.22;;;15.00;99.90;;;15.83;84.48;97655.97;5202560;28;20296;-56
2021/07/30 01:31:19;;;;;;;6.68;6.07;;;15.00;99.90;;;15.84;84.77;97657.72;5204129;28;20216;-57
2021/07/30 01:33:52;;;;;;;6.70;6.20;;;15.00;99.90;;;15.80;84.75;97649.00;5203341;28;20602;-59
2021/07/30 01:36:25;;;;;;;6.57;6.05;;;14.90;99.90;;;15.75;85.29;97648.84;5199068;28;20579;-59
2021/07/30 01:38:59;;;;;;;7.57;6.88;;;14.90;99.90;;;15.75;85.71;97643.69;5203917;28;20284;-58
2021/07/30 01:41:32;;;;;;;7.32;6.63;;;14.90;99.90;;;15.74;85.81;97646.22;5204108;28;20201;-58
2021/07/30 01:44:05;;;;;;;6.68;6.18;;;14.90;99.90;;;15.74;85.50;97652.25;5203807;28;20197;-57
2021/07/30 01:46:38;;;;;;;7.50;6.63;;;14.90;99.90;;;15.75;85.50;97653.13;5202250;28;20202;-58
2021/07/30 01:49:11;;;;;;;6.45;5.95;;;14.90;99.90;;;15.69;84.85;97648.66;5204094;28;20208;-58
2021/07/30 01:51:44;;;;;;;6.63;6.00;;;14.90;99.90;;;15.68;84.39;97649.47;5203340;28;20224;-56
2021/07/30 01:54:18;;;;;;;6.82;6.32;;;14.80;99.90;;;15.64;84.29;97655.31;5202919;28;20225;-58
2021/07/30 01:56:51;;;;;;;6.47;5.97;;;14.70;99.90;;;15.54;84.34;97651.56;5204598;28;20212;-58
2021/07/30 01:59:24;;;;;;;6.78;6.10;;;14.70;99.90;;;15.58;84.53;97654.22;5206170;28;20306;-58
2021/07/30 02:01:57;;;;;;;6.97;6.45;;;14.70;99.90;;;15.50;84.38;97643.66;5206978;28;20226;-58
2021/07/30 02:04:30;;;;;;;7.25;6.65;;;14.60;99.90;;;15.51;84.50;97643.72;5206746;28;20190;-57
2021/07/30 02:07:04;;;;;;;6.43;5.90;;;14.50;99.90;;;15.52;84.83;97642.88;5206689;28;20206;-57
2021/07/30 02:09:39;;;;;;;6.75;6.18;;;14.60;99.90;;;15.47;85.73;97639.28;5208099;28;20215;-58
2021/07/30 02:12:12;;;;;;;7.70;6.82;;;14.60;99.90;;;15.39;85.99;97637.25;5206234;28;20323;-59
2021/07/30 02:14:44;;;;;;;6.80;6.20;;;14.50;99.90;;;15.35;86.10;97635.41;5208232;28;20324;-57
2021/07/30 02:17:17;;;;;;;7.20;6.55;;;14.50;99.90;;;15.28;86.07;97630.06;5206445;28;20236;-57
2021/07/30 02:19:50;;;;;;;7.05;6.40;;;14.50;99.90;;;15.30;86.23;97630.09;5204873;28;20662;-57
2021/07/30 02:22:23;;;;;;;7.07;6.47;;;14.40;99.90;;;15.26;86.22;97625.66;5206301;28;20230;-56
2021/07/30 02:24:57;;;;;;;6.70;6.20;;;14.40;99.90;;;15.24;86.30;97628.19;5207156;28;20355;-58
2021/07/30 02:27:30;;;;;;;6.90;6.30;;;14.40;99.90;;;15.26;85.67;97631.69;5204302;28;20200;-59
2021/07/30 02:30:04;;;;;;;6.65;6.05;;;14.40;99.90;;;15.26;85.53;97621.38;5207118;28;20325;-57
2021/07/30 02:32:37;;;;;;;6.97;6.32;;;14.40;99.90;;;15.21;85.22;97622.91;5192401;28;20222;-57
2021/07/30 02:35:11;;;;;;;6.47;5.90;;;14.30;99.90;;;15.20;85.19;97626.34;5204273;28;20752;-58
2021/07/30 02:37:44;;;;;;;6.97;6.38;;;14.40;99.90;;;15.22;85.43;97623.78;5205321;28;20198;-55
2021/07/30 02:40:19;;;;;;;6.90;6.25;;;14.40;99.90;;;15.20;85.38;97617.75;5207820;28;20208;-57
2021/07/30 02:42:52;;;;;;;6.28;5.75;;;14.30;99.90;;;15.19;86.07;97639.13;5206972;28;20221;-56
2021/07/30 02:45:25;;;;;;;6.90;6.25;;;14.40;99.90;;;15.18;85.33;97630.53;5207172;28;20198;-56
2021/07/30 02:47:58;;;;;;;6.50;6.00;;;14.30;99.90;;;15.17;85.42;97626.22;5203321;28;20205;-56
2021/07/30 02:50:31;;;;;;;7.40;6.70;;;14.20;99.90;;;15.11;86.15;97620.88;5206245;28;20201;-57
2021/07/30 02:53:04;;;;;;;7.68;6.97;;;14.20;99.90;;;15.07;86.20;97618.97;5203434;28;20217;-58
2021/07/30 02:55:38;;;;;;;7.03;6.32;;;14.20;99.90;;;15.08;85.61;97621.63;5206768;28;20232;-58
2021/07/30 02:58:12;;;;;;;6.43;5.93;;;14.20;99.90;;;15.08;85.53;97618.19;5204192;28;20201;-52
2021/07/30 03:00:45;;;;;;;6.40;5.85;;;14.20;99.90;;;15.05;85.86;97621.53;5205987;28;20218;-58
2021/07/30 03:03:18;;;;;;;6.57;5.97;;;14.20;99.90;;;15.01;86.21;97618.78;5205753;28;20226;-57
2021/07/30 03:05:51;;;;;;;6.30;5.70;;;14.20;99.90;;;15.01;85.36;97623.91;5206422;28;20239;-59
2021/07/30 03:08:24;;;;;;;6.70;6.10;;;14.10;99.90;;;14.99;85.70;97620.41;5204849;28;20579;-57
2021/07/30 03:10:59;;;;;;;6.32;5.82;;;14.10;99.90;;;14.96;85.45;97613.44;5205614;28;20209;-57
2021/07/30 03:13:32;;;;;;;7.28;6.78;;;14.10;99.90;;;14.94;87.29;97615.13;5202190;28;20589;-55
2021/07/30 03:16:06;;;;;;;7.10;6.60;;;14.10;99.90;;;14.84;87.57;97610.44;5204975;28;20226;-59
2021/07/30 03:18:39;;;;;;;7.72;7.00;;;14.10;99.90;;;14.79;86.53;97606.81;5193107;28;20209;-54
2021/07/30 03:21:12;;;;;;;7.15;6.55;;;14.00;99.90;;;14.82;86.23;97607.84;5204252;28;20661;-58
2021/07/30 03:23:45;;;;;;;7.55;6.85;;;13.90;99.90;;;14.84;86.66;97601.03;5205660;28;20318;-56
2021/07/30 03:26:19;;;;;;;6.80;6.15;;;14.00;99.90;;;14.79;86.23;97601.69;5205891;28;20202;-54
2021/07/30 03:28:52;;;;;;;7.22;6.63;;;13.90;99.90;;;14.79;87.01;97596.53;5205396;28;20201;-58
2021/07/30 03:31:25;;;;;;;7.63;7.03;;;14.00;99.90;;;14.78;86.67;97602.50;5206441;28;20202;-58
2021/07/30 03:33:59;;;;;;;6.55;5.95;;;13.90;99.90;;;14.73;86.33;97612.63;5203267;28;20249;-57
2021/07/30 03:36:33;;;;;;;6.22;5.72;;;13.90;99.90;;;14.74;86.95;97603.22;5205565;28;20233;-54
2021/07/30 03:39:06;;;;;;;7.20;6.60;;;13.90;99.90;;;14.77;86.34;97611.94;5204088;28;20209;-55
2021/07/30 03:41:41;;;;;;;6.47;6.07;;;13.90;99.90;;;14.66;86.25;97604.63;5205099;28;20220;-57
2021/07/30 03:44:14;;;;;;;7.05;6.35;;;13.80;99.90;;;14.64;85.98;97608.00;5206255;28;20201;-58
2021/07/30 03:46:46;;;;;;;6.95;6.35;;;13.80;99.90;;;14.61;85.87;97604.47;5204705;28;20219;-57
2021/07/30 03:49:19;;;;;;;6.88;6.32;;;13.80;99.90;;;14.62;86.00;97607.09;5196869;28;20208;-58
2021/07/30 03:51:52;;;;;;;6.72;6.13;;;13.70;99.90;;;14.61;86.08;97607.91;5204969;28;20212;-56
2021/07/30 03:54:26;;;;;;;6.88;6.28;;;13.70;99.90;;;14.57;86.05;97600.03;5193500;28;20237;-58
2021/07/30 03:57:00;;;;;;;7.13;6.57;;;13.70;99.90;;;14.57;86.18;97594.88;5197186;28;20198;-55
2021/07/30 03:59:33;;;;;;;7.07;6.43;;;13.70;99.90;;;14.57;86.52;97593.19;5204569;28;20193;-57
2021/07/30 04:02:06;;;;;;;6.47;6.05;;;13.70;99.90;;;14.62;86.32;97595.91;5203176;28;20244;-56
2021/07/30 04:04:39;;;;;;;7.03;6.15;;;13.70;99.90;;;14.62;85.50;97591.66;5204733;28;20546;-59
2021/07/30 04:07:12;;;;;;;7.43;6.80;;;13.70;99.90;;;14.57;86.19;97600.03;5201114;28;20194;-57
2021/07/30 04:09:45;;;;;;;7.00;6.30;;;13.70;99.90;;;14.50;85.47;97595.44;5203284;28;20707;-58
2021/07/30 04:12:20;;;;;;;7.05;6.43;;;13.60;99.90;;;14.47;86.53;97593.63;5204589;28;20221;-58
2021/07/30 04:14:53;;;;;;;7.18;6.53;;;13.60;99.90;;;14.50;86.41;97591.16;5205726;28;20600;-58
2021/07/30 04:17:26;;;;;;;7.32;6.65;;;13.70;99.90;;;14.51;86.85;97597.19;5203546;28;20210;-55
2021/07/30 04:19:59;;;;;;;7.47;6.78;;;13.70;99.90;;;14.51;86.66;97594.63;5199685;28;20210;-57
2021/07/30 04:22:32;;;;;;;7.40;6.75;;;13.70;99.90;;;14.57;86.03;97594.88;5196116;28;20233;-58
2021/07/30 04:25:08;;;;;;;6.80;6.28;;;13.60;99.90;;;14.57;85.47;97590.63;5198894;28;20602;-58
2021/07/30 04:27:42;;;;;;;7.25;6.57;;;13.60;99.90;;;14.54;85.59;97594.78;5195955;28;20218;-56
2021/07/30 04:30:15;;;;;;;6.28;5.88;;;13.60;99.90;;;14.49;84.98;97585.97;5195887;28;20197;-58
2021/07/30 04:32:48;;;;;;;6.78;6.20;;;13.60;99.90;;;14.52;86.21;97596.41;5197027;28;20232;-57
2021/07/30 04:35:22;;;;;;;7.13;6.53;;;13.70;99.90;;;14.51;86.18;97594.63;5195950;28;20230;-57
2021/07/30 04:37:56;;;;;;;7.72;7.03;;;13.60;99.90;;;14.48;86.14;97595.38;5196483;28;20221;-56
2021/07/30 04:40:29;;;;;;;7.65;6.68;;;13.60;99.90;;;14.45;86.26;97589.22;5197383;28;20197;-58
2021/07/30 04:43:04;;;;;;;7.07;6.35;;;13.60;99.90;;;14.48;86.17;97584.19;5196523;28;20594;-56
2021/07/30 04:45:37;;;;;;;7.18;6.57;;;13.70;99.90;;;14.54;86.63;97587.06;5195082;28;20775;-56
2021/07/30 04:48:10;;;;;;;7.28;6.55;;;13.70;99.90;;;14.53;87.07;97583.59;5197267;28;20198;-58
2021/07/30 04:50:43;;;;;;;7.15;6.55;;;13.70;99.90;;;14.62;87.05;97583.03;5196144;28;20194;-58
2021/07/30 04:53:16;;;;;;;8.65;7.20;;;13.80;99.90;;;14.70;86.09;97585.91;5195887;28;20232;-58
2021/07/30 04:55:49;;;;;;;7.15;6.45;;;13.80;99.90;;;14.75;86.79;97582.69;5194589;28;20222;-55
2021/07/30 04:58:23;;;;;;;7.90;7.20;;;13.90;99.90;;;14.65;86.51;97583.19;5195974;28;20205;-57
2021/07/30 05:00:57;;;;;;;7.32;6.72;;;13.90;99.90;;;14.77;85.90;97583.63;5195505;28;20201;-57
2021/07/30 05:03:30;;;;;;;7.53;6.88;;;13.90;99.90;;;14.86;86.71;97583.94;5196113;28;20267;-59
2021/07/30 05:06:13;;;;;;;7.05;6.45;;;14.00;99.90;;;14.83;85.01;97583.84;5195636;28;20203;-58
2021/07/30 05:08:47;;;;;;;6.70;6.20;;;13.90;99.90;;;14.87;85.03;97584.81;5196138;28;20336;-58
2021/07/30 05:11:20;;;;;;;7.22;6.63;;;13.90;99.90;;;15.00;84.45;97581.00;5197787;28;20680;-58
2021/07/30 05:13:54;;;;;;;6.93;6.20;;;14.00;99.90;;;15.17;84.38;97597.91;5194213;28;20217;-57
2021/07/30 05:16:27;;;;;;;7.03;6.50;;;14.20;99.90;;;15.30;84.07;97584.59;5196284;28;20213;-58
2021/07/30 05:19:00;;;;;;;7.03;6.43;;;14.30;99.90;;;15.40;84.10;97582.38;5195252;28;20210;-56
2021/07/30 05:21:33;;;;;;;7.68;6.97;;;14.40;99.90;;;15.55;83.29;97582.88;5195933;28;20194;-54
2021/07/30 05:24:07;;;;;;;7.70;7.00;;;14.60;99.90;;;15.71;82.77;97590.31;5193345;28;20217;-57
2021/07/30 05:26:40;;;;;;;7.15;6.50;;;14.70;99.90;;;16.28;81.16;97576.63;5192694;28;20194;-57
2021/07/30 05:29:14;;;;;;;6.90;6.40;;;15.20;99.90;;;17.04;79.52;97585.69;5195167;28;20205;-56
2021/07/30 05:31:47;;;;;;;6.78;5.60;;;15.80;99.90;;;17.69;74.31;97577.03;5197628;28;20304;-58
2021/07/30 05:34:21;;;;;;;6.70;6.00;;;16.30;99.90;;;18.10;72.45;97572.00;5197717;28;20204;-57
2021/07/30 05:36:54;;;;;;;6.07;5.47;;;16.70;99.90;;;18.85;69.91;97574.47;5197862;28;20233;-58
2021/07/30 05:39:29;;;;;;;6.32;5.80;;;17.40;99.90;;;19.15;68.11;97573.34;5199857;28;20209;-58
2021/07/30 05:42:03;;;;;;;5.90;5.40;;;17.60;99.90;;;19.69;66.07;97575.19;5196823;28;20709;-58
2021/07/30 05:44:37;;;;;;;6.13;5.63;;;18.10;99.90;;;20.10;64.77;97577.56;5198972;28;20670;-58
2021/07/30 05:47:12;;;;;;;6.85;5.82;;;18.50;99.90;;;20.30;63.50;97574.38;5198448;28;21698;-58
2021/07/30 05:49:45;;;;;;;6.88;6.18;;;18.70;99.90;;;20.80;63.09;97576.78;5205447;28;20200;-56
2021/07/30 05:52:18;;;;;;;6.47;5.95;;;19.00;99.90;;;21.05;61.30;97573.63;5206796;28;20453;-58
2021/07/30 05:54:51;;;;;;;6.40;5.80;;;19.20;99.90;;;21.41;60.24;97574.91;5206186;28;20209;-59
2021/07/30 05:57:24;;;;;;;6.45;5.95;;;19.30;99.90;;;21.66;58.74;97576.00;5202269;28;20228;-59
2021/07/30 05:59:58;;;;;;;6.80;6.15;;;19.60;99.90;;;21.80;59.39;97578.69;5204800;28;20216;-59
2021/07/30 06:02:31;;;;;;;6.93;6.32;;;19.70;99.90;;;21.55;58.29;97572.44;5203194;28;20236;-57
2021/07/30 06:05:06;;;;;;;6.45;5.80;;;19.70;99.90;;;22.02;58.02;97571.94;5201456;28;20193;-59
2021/07/30 06:07:39;;;;;;;6.50;5.90;;;19.80;99.90;;;22.14;56.91;97569.41;5195267;28;20197;-57
2021/07/30 06:10:12;;;;;;;6.40;5.90;;;19.90;99.90;;;22.69;56.02;97561.03;5205906;28;20216;-58
2021/07/30 06:12:45;;;;;;;5.60;5.10;;;20.20;99.90;;;22.94;55.35;97562.88;5205132;28;20228;-59
2021/07/30 06:15:23;;;;;;;5.28;4.85;;;20.20;99.90;;;23.34;54.61;97565.63;5198197;28;20198;-59
2021/07/30 06:17:56;;;;;;;5.45;5.03;;;20.60;99.90;;;23.48;54.41;97564.78;5202671;28;20202;-57
2021/07/30 06:20:30;;;;;;;5.55;5.15;;;20.80;99.90;;;23.99;53.46;97555.25;5189007;28;20202;-57
2021/07/30 06:23:03;;;;;;;6.13;5.22;;;21.00;99.90;;;23.99;52.98;97561.34;5197916;28;20293;-58
2021/07/30 06:25:36;;;;;;;5.55;5.15;;;21.10;99.90;;;24.46;51.64;97555.16;5199527;28;20290;-59
2021/07/30 06:28:10;;;;;;;5.22;4.72;;;21.40;99.90;;;25.00;50.71;97549.72;5196763;28;20202;-59
2021/07/30 06:30:44;;;;;;;5.97;5.20;;;21.70;99.90;;;25.14;50.58;97552.31;5197518;28;20654;-57
2021/07/30 06:33:18;;;;;;;5.20;4.80;;;21.90;99.90;;;25.61;48.80;97544.13;5198925;28;20729;-58
2021/07/30 06:35:51;;;;;;;5.63;5.22;;;22.30;99.90;;;25.72;48.95;97544.03;5198038;28;20225;-59
2021/07/30 06:38:24;;;;;;;4.90;4.50;;;22.50;99.90;;;25.87;48.09;97540.47;5198650;28;20661;-60
2021/07/30 06:40:57;;;;;;;5.15;4.75;;;22.70;99.90;;;26.21;47.65;97540.13;5197264;28;20197;-59
2021/07/30 06:43:30;;;;;;;5.05;4.57;;;23.10;99.90;;;26.56;47.17;97546.78;5198084;28;20231;-59
2021/07/30 06:46:04;;;;;;;4.95;4.28;;;23.50;99.90;;;26.50;48.35;97538.09;5198863;28;20205;-58
2021/07/30 06:48:38;;;;;;;5.07;4.60;;;23.80;99.90;;;27.08;45.63;97538.25;5204469;28;20208;-59
2021/07/30 06:51:12;;;;;;;5.00;4.53;;;24.10;99.90;;;27.23;45.68;97532.81;5201561;28;20208;-59
2021/07/30 06:53:45;;;;;;;4.78;4.38;;;24.40;99.90;;;27.48;44.55;97535.06;5196647;28;20252;-59
2021/07/30 06:56:18;;;;;;;5.50;4.53;;;24.70;99.00;;;27.81;43.72;97531.03;5198201;28;20245;-59
2021/07/30 06:58:51;;;;;;;4.47;4.07;;;24.90;98.40;;;28.13;43.18;97527.88;5197341;28;20200;-59
2021/07/30 07:01:25;;;;;;;4.90;4.40;;;25.20;98.30;;;28.14;42.41;97526.97;5198311;28;20766;-58
2021/07/30 07:04:02;;;;;;;4.85;4.45;;;25.40;97.30;;;28.54;42.69;97522.75;5198485;28;20813;-59
2021/07/30 07:06:35;;;;;;;4.80;4.40;;;25.60;97.30;;;28.48;42.09;97521.97;5198100;28;20650;-58
2021/07/30 07:09:08;;;;;;;4.20;3.90;;;25.80;96.70;;;28.58;42.46;97517.38;5199283;28;20208;-60
2021/07/30 07:11:41;;;;;;;4.38;3.97;;;25.90;97.10;;;28.36;42.93;97513.41;5197651;28;20201;-60
2021/07/30 07:14:15;;;;;;;4.57;4.18;;;25.90;96.70;;;28.74;41.96;97507.41;5196752;28;20679;-60
2021/07/30 07:16:49;;;;;;;4.20;3.83;;;26.20;95.80;;;28.71;40.92;97507.47;5195727;28;20221;-59
2021/07/30 07:19:23;;;;;;;4.60;3.92;;;26.50;94.90;;;29.21;39.80;97513.41;5196391;28;20208;-60
2021/07/30 07:24:38;;;;;;;4.30;4.00;;;26.70;94.60;;;29.29;40.33;97492.19;5175821;28;20229;-67
2021/07/30 07:27:11;;;;;;;4.20;3.80;;;26.90;94.60;;;29.72;39.17;97496.44;5179729;28;20272;-67
2021/07/30 07:29:44;;;;;;;3.97;3.67;;;27.20;93.70;;;30.02;39.48;97495.63;5177910;28;20202;-67
2021/07/30 07:32:19;;;;;;;4.30;3.90;;;27.30;94.20;;;30.09;38.58;97483.16;5176859;28;20253;-66
2021/07/30 07:34:52;;;;;;;4.18;3.78;;;27.30;93.50;;;30.50;37.62;97487.31;5176705;28;20600;-67
2021/07/30 07:37:25;;;;;;;3.78;3.47;;;27.20;93.00;;;30.90;36.83;97494.06;5176363;28;20232;-67
2021/07/30 07:39:58;;;;;;;4.15;3.72;;;27.50;92.70;;;31.06;36.70;97497.09;5176623;28;20198;-67
2021/07/30 07:42:31;;;;;;;4.00;3.60;;;27.70;92.60;;;30.79;36.79;97484.69;5177160;28;20218;-67
2021/07/30 07:45:06;;;;;;;3.90;3.50;;;27.90;92.20;;;31.31;36.14;97477.88;5176171;28;20210;-67
2021/07/30 07:47:41;;;;;;;4.25;3.85;;;27.90;92.00;;;31.94;35.09;97478.47;5177177;28;20197;-67
2021/07/30 07:50:14;;;;;;;3.95;3.65;;;28.30;92.00;;;32.04;34.07;97474.56;5176285;28;20197;-67
2021/07/30 07:52:47;;;;;;;4.95;3.70;;;28.30;91.20;;;32.36;33.22;97470.75;5175658;28;20224;-67
2021/07/30 07:55:21;;;;;;;3.80;3.40;;;28.40;90.50;;;32.42;33.55;97477.59;5175901;28;20206;-67
2021/07/30 07:57:54;;;;;;;3.67;3.38;;;28.70;90.10;;;32.82;32.01;97476.13;5177702;28;20214;-67
2021/07/30 08:00:27;;;;;;;4.15;3.85;;;29.00;89.30;;;31.95;33.96;97475.75;5181413;28;20705;-67
2021/07/30 08:03:01;;;;;;;3.85;3.55;;;28.70;90.20;;;32.25;33.69;97468.53;5175779;28;20605;-67
2021/07/30 08:05:34;;;;;;;3.85;3.55;;;28.90;90.40;;;32.77;32.66;97475.47;5175849;28;20228;-67
2021/07/30 08:08:08;;;;;;;4.18;3.70;;;29.10;89.50;;;33.12;32.63;97488.22;5175051;28;20668;-66
2021/07/30 08:10:41;;;;;;;4.00;3.70;;;29.20;89.10;;;32.91;33.37;97478.47;5176156;28;20296;-66
2021/07/30 08:13:15;;;;;;;4.03;3.63;;;29.20;89.20;;;32.64;31.73;97483.00;5176145;28;20222;-66
2021/07/30 08:15:48;;;;;;;4.15;3.85;;;29.60;85.00;;;32.43;32.86;97482.00;5175197;28;20582;-66
2021/07/30 08:18:23;;;;;;;4.63;4.22;;;29.30;87.30;;;32.18;33.73;97474.94;5180599;28;20277;-66
2021/07/30 08:20:56;;;;;;;3.97;3.55;;;29.10;87.20;;;32.06;32.56;97476.25;5179687;28;20202;-66
2021/07/30 08:23:30;;;;;;;4.32;3.95;;;29.30;83.80;;;32.02;33.14;97479.03;5175590;28;20344;-66
2021/07/30 08:26:04;;;;;;;4.25;3.95;;;29.20;85.60;;;31.90;33.99;97476.78;5177276;28;20266;-66
2021/07/30 08:28:37;;;;;;;4.50;4.18;;;29.00;87.60;;;31.73;33.55;97477.38;5177025;28;20202;-66
2021/07/30 08:31:10;;;;;;;4.57;4.18;;;29.20;84.80;;;31.69;32.54;97478.41;5175197;28;20210;-66
2021/07/30 08:33:44;;;;;;;4.85;4.38;;;29.10;83.70;;;31.55;33.42;97484.16;5173375;28;20717;-66
2021/07/30 08:36:17;;;;;;;4.43;4.03;;;29.20;84.80;;;31.56;33.67;97477.94;5174149;28;20653;-66
2021/07/30 08:38:50;;;;;;;4.07;3.78;;;29.30;83.60;;;31.53;34.09;97467.47;5174739;28;20240;-67
2021/07/30 08:41:23;;;;;;;5.05;4.55;;;29.40;85.10;;;31.44;33.64;97473.06;5178756;28;20194;-67
2021/07/30 08:43:57;;;;;;;3.88;3.67;;;29.20;84.10;;;31.22;34.41;97471.09;5181185;28;20226;-67
2021/07/30 08:46:31;;;;;;;4.68;4.28;;;29.00;86.30;;;31.09;34.70;97469.75;5173791;28;20198;-67
2021/07/30 08:49:07;;;;;;;4.65;4.30;;;29.00;85.70;;;31.25;34.38;97464.81;5174154;28;20281;-67
2021/07/30 08:51:43;;;;;;;4.30;4.00;;;29.10;85.30;;;31.33;34.98;97474.22;5172146;28;20204;-67
2021/07/30 08:54:17;;;;;;;4.53;4.20;;;29.30;85.50;;;31.23;34.73;97475.47;5178836;28;20218;-66
2021/07/30 08:56:50;;;;;;;4.65;4.25;;;29.50;84.50;;;31.22;34.26;97468.47;5176845;28;20213;-66
2021/07/30 08:59:23;;;;;;;4.80;4.50;;;29.40;83.40;;;31.16;34.35;97466.88;5173609;28;20232;-66
2021/07/30 09:01:56;;;;;;;4.57;4.28;;;29.50;83.60;;;31.08;34.04;97470.66;5170222;28;20234;-67
2021/07/30 09:04:32;;;;;;;5.10;4.72;;;29.20;83.60;;;30.83;34.77;97466.13;5171665;28;20318;-67
2021/07/30 09:07:05;;;;;;;4.90;4.60;;;29.40;83.50;;;30.75;34.89;97468.09;5174468;28;20198;-67
2021/07/30 09:09:38;;;;;;;4.88;4.47;;;29.20;83.10;;;30.63;35.29;97468.47;5170852;28;20236;-68
2021/07/30 09:12:11;;;;;;;5.85;4.85;;;28.90;84.70;;;30.50;35.81;97468.84;5174344;28;20206;-67
2021/07/30 09:14:44;;;;;;;4.93;4.53;;;29.10;84.60;;;30.50;35.59;97466.22;5173997;28;20661;-67
2021/07/30 09:17:18;;;;;;;5.07;4.78;;;29.20;84.10;;;30.47;35.72;97466.28;5175772;28;20226;-66
2021/07/30 09:20:02;;;;;;;5.40;5.00;;;29.20;85.10;;;30.38;36.20;97461.25;5178954;28;20197;-66
2021/07/30 09:22:49;;;;;;;5.20;4.80;;;29.10;84.80;;;30.39;35.23;97463.00;5180549;28;20229;-66
2021/07/30 09:25:33;;;;;;;5.60;5.10;;;28.90;83.30;;;30.23;35.85;97457.28;5179937;28;20206;-67
2021/07/30 09:28:08;;;;;;;5.93;5.43;;;28.90;84.80;;;30.25;36.23;97452.00;5181033;28;20288;-66
2021/07/30 09:30:41;;;;;;;5.75;5.25;;;28.80;84.70;;;30.31;36.42;97449.19;5182853;28;20201;-67
2021/07/30 09:33:26;;;;;;;6.57;5.20;;;29.00;84.90;;;30.23;36.78;97453.78;5180498;28;20214;-66
2021/07/30 09:36:01;;;;;;;5.90;5.40;;;29.10;84.10;;;30.24;35.96;97455.50;5179955;28;20208;-67
2021/07/30 09:38:34;;;;;;;5.25;4.85;;;29.00;84.20;;;30.06;35.99;97449.81;5181131;28;20221;-66
2021/07/30 09:41:12;;;;;;;5.60;5.20;;;28.80;84.10;;;30.00;37.24;97447.34;5178937;28;20223;-63
2021/07/30 09:43:46;;;;;;;5.60;5.20;;;28.70;85.40;;;30.07;37.43;97446.25;5177354;28;20723;-67
2021/07/30 09:46:19;;;;;;;5.50;5.10;;;28.80;86.10;;;30.13;37.13;97436.47;5174925;28;20211;-67
2021/07/30 09:48:53;;;;;;;6.05;5.47;;;28.80;85.60;;;30.15;37.33;97437.28;5174293;28;20209;-67
2021/07/30 09:51:29;;;;;;;6.00;5.40;;;29.00;86.10;;;30.31;37.52;97433.34;5174116;28;20681;-67
2021/07/30 09:54:02;;;;;;;6.22;5.72;;;29.20;85.90;;;30.30;36.70;97434.25;5171175;28;20225;-67
2021/07/30 09:56:35;;;;;;;5.97;5.47;;;29.00;84.90;;;30.22;37.85;97429.22;5174776;28;20198;-67
2021/07/30 09:59:08;;;;;;;5.75;5.32;;;28.90;86.50;;;30.21;37.28;97431.84;5176190;28;20228;-66
2021/07/30 10:01:42;;;;;;;6.05;5.55;;;29.10;85.70;;;30.05;37.56;97426.16;5177636;28;20198;-67
2021/07/30 10:04:20;;;;;;;5.88;5.38;;;29.00;85.90;;;29.99;38.03;97421.00;5179550;28;20221;-66
2021/07/30 10:06:55;;;;;;;6.50;5.97;;;28.90;86.70;;;29.94;39.01;97417.66;5180916;28;20198;-67
2021/07/30 10:09:30;;;;;;;6.53;6.03;;;28.90;87.20;;;30.11;38.68;97401.38;5180545;28;20196;-67
2021/07/30 10:12:04;;;;;;;6.28;5.78;;;29.00;87.60;;;30.09;38.46;97410.19;5178811;28;20201;-66
2021/07/30 10:14:38;;;;;;;6.63;6.07;;;29.00;86.70;;;29.99;38.43;97406.09;5181846;28;20205;-67
2021/07/30 10:17:17;;;;;;;6.53;5.95;;;28.90;86.70;;;29.89;39.12;97404.59;5179765;28;20245;-67
2021/07/30 10:19:51;;;;;;;6.75;5.95;;;28.70;88.20;;;29.80;38.63;97399.59;5177809;28;20225;-67
2021/07/30 10:22:33;;;;;;;6.20;5.70;;;28.60;87.40;;;29.74;39.62;97395.34;5180358;28;20268;-65
2021/07/30 10:25:09;;;;;;;6.60;6.10;;;28.60;88.30;;;29.74;39.79;97386.59;5181192;28;20206;-67
2021/07/30 10:27:45;;;;;;;6.40;5.75;;;28.80;89.00;;;29.88;39.33;97394.13;5180648;28;20872;-67
2021/07/30 10:30:18;;;;;;;6.32;5.72;;;28.80;88.90;;;29.92;39.56;97390.47;5180931;28;20256;-66
2021/07/30 10:32:55;;;;;;;6.93;6.32;;;28.90;88.40;;;29.87;39.80;97393.22;5178504;28;20584;-66
2021/07/30 10:35:46;;;;;;;6.68;6.07;;;28.80;88.70;;;29.74;39.51;97383.94;5181257;28;20570;-66
2021/07/30 10:38:23;;;;;;;6.63;6.13;;;28.70;88.10;;;29.74;40.08;97386.59;5182065;28;20218;-66
2021/07/30 10:41:21;;;;;;;6.35;5.85;;;28.60;89.50;;;29.86;40.12;97376.56;5181215;28;20672;-67
2021/07/30 10:44:10;;;;;;;6.45;5.90;;;28.70;88.70;;;29.84;38.81;97383.63;5168169;28;20224;-66
2021/07/30 10:46:44;;;;;;;6.43;5.85;;;28.60;87.40;;;29.76;39.79;97374.22;5185691;28;20212;-64
2021/07/30 10:49:42;;;;;;;7.18;6.57;;;28.50;88.90;;;29.64;39.65;97371.00;5185781;28;20216;-66
2021/07/30 10:52:27;;;;;;;6.80;6.30;;;28.50;88.40;;;29.52;40.55;97376.56;5185945;28;20642;-66